Curtice, Ohio
Current Conditions -  °F | °C
As of 6:53 AM on Sunday 21 Dec 2014 (Local Time) from KTDZ Reporting Station
Haze Haze  
Wind Chill: 22°   Ceiling: Unl
Heat Index: 22°   Visibility: 4mi
Dew Point: 19°   Wind: 0mph
Humidity: 89%   Direction: NA
Pressure: 30.32"   Gusts: NA
Location:  41.62°N, 83.37°W
Report Text: KTDZ 211153Z AUTO 00000KT 4SM BR CLR M06/M07 A3032 RMK AO2 SLP276 I1000 I6001 T10561072 11011 21061 53006 TSNO
Loading
Personal Weather Stations






























Interactive Weather Map New forecast layout! Learn more

10-Day Weather Forecast

Advertisements
Track Severe Weather on mobile